createdAt,value
2023-04-11T00:02:13.973Z,66.83
2023-04-11T00:04:41.340Z,66.14
2023-04-11T00:07:09.290Z,66.70
2023-04-11T00:09:36.332Z,66.84
2023-04-11T00:12:03.799Z,67.72
2023-04-11T00:14:34.424Z,67.76
2023-04-11T00:17:01.466Z,68.88
2023-04-11T00:19:28.592Z,68.05
2023-04-11T00:21:58.632Z,68.29
2023-04-11T00:24:26.477Z,69.08
2023-04-11T00:26:53.877Z,69.74
2023-04-11T00:29:20.985Z,70.86
2023-04-11T00:31:48.680Z,70.88
2023-04-11T00:34:17.266Z,70.73
2023-04-11T00:36:44.534Z,70.79
2023-04-11T00:39:13.243Z,71.27
2023-04-11T00:41:40.519Z,72.38
2023-04-11T00:44:08.530Z,71.44
2023-04-11T00:46:35.968Z,71.48
2023-04-11T00:49:03.197Z,71.65
2023-04-11T00:51:30.505Z,71.94
2023-04-11T00:53:57.695Z,71.85
2023-04-11T00:56:24.869Z,73.11
2023-04-11T00:58:51.920Z,73.49
2023-04-11T01:01:19.987Z,73.83
2023-04-11T01:03:47.333Z,73.16
2023-04-11T01:06:14.978Z,73.08
2023-04-11T01:08:42.849Z,73.10
2023-04-11T01:11:10.659Z,73.50
2023-04-11T01:13:41.896Z,73.84
2023-04-11T01:16:10.176Z,74.26
2023-04-11T01:18:37.459Z,73.83
2023-04-11T01:21:05.001Z,73.05
2023-04-11T01:23:34.267Z,73.80
2023-04-11T01:26:01.410Z,73.78
2023-04-11T01:28:28.691Z,72.37
2023-04-11T01:30:55.919Z,73.54
2023-04-11T01:33:23.398Z,74.80
2023-04-11T01:35:50.534Z,76.41
2023-04-11T01:38:17.756Z,77.56
2023-04-11T01:40:45.323Z,74.20
2023-04-11T01:43:12.584Z,70.64
2023-04-11T01:45:40.000Z,69.43
2023-04-11T01:48:08.417Z,69.39
2023-04-11T01:50:35.908Z,69.58
2023-04-11T01:53:04.974Z,68.43
2023-04-11T01:55:32.076Z,67.76
2023-04-11T01:57:59.155Z,68.01
2023-04-11T02:00:26.269Z,68.36
2023-04-11T02:02:53.450Z,68.71
2023-04-11T02:05:20.744Z,69.17
2023-04-11T02:07:47.806Z,69.45
2023-04-11T02:10:18.349Z,69.43
2023-04-11T02:12:45.427Z,69.06
2023-04-11T02:15:13.271Z,68.68
2023-04-11T02:17:45.543Z,69.11
2023-04-11T02:20:13.641Z,69.49
2023-04-11T02:22:41.410Z,69.49
2023-04-11T02:25:08.616Z,70.13
2023-04-11T02:27:35.748Z,70.02
2023-04-11T02:30:06.108Z,70.18
2023-04-11T02:32:37.753Z,71.18
2023-04-11T02:35:05.219Z,70.98
2023-04-11T02:37:32.358Z,72.73
2023-04-11T02:39:59.380Z,71.49
2023-04-11T02:42:26.461Z,71.94
2023-04-11T02:44:54.502Z,71.27
2023-04-11T02:47:23.254Z,70.88
2023-04-11T02:49:50.540Z,70.11
2023-04-11T02:52:23.475Z,70.13
2023-04-11T02:54:50.513Z,69.98
2023-04-11T02:57:17.648Z,68.91
2023-04-11T02:59:44.849Z,69.90
2023-04-11T03:02:12.858Z,68.85
2023-04-11T03:04:40.219Z,68.99
2023-04-11T03:07:13.431Z,68.12
2023-04-11T03:09:40.568Z,68.09
2023-04-11T03:12:07.957Z,67.39
2023-04-11T03:14:39.532Z,67.33
2023-04-11T03:17:06.634Z,67.98
2023-04-11T03:19:34.115Z,67.26
2023-04-11T03:22:04.583Z,67.61
2023-04-11T03:24:32.339Z,68.43
2023-04-11T03:26:59.520Z,67.73
2023-04-11T03:29:27.116Z,68.24
2023-04-11T03:32:03.227Z,69.30
2023-04-11T03:34:33.941Z,69.32
2023-04-11T03:37:02.517Z,69.08
2023-04-11T03:39:30.104Z,68.97
2023-04-11T03:41:59.313Z,69.41
2023-04-11T03:44:27.258Z,71.55
2023-04-11T03:46:54.900Z,72.07
2023-04-11T03:49:22.065Z,71.51
2023-04-11T03:51:54.462Z,72.55
2023-04-11T03:54:21.911Z,72.58
2023-04-11T03:56:49.026Z,71.35
2023-04-11T03:59:21.377Z,71.66
2023-04-11T04:01:54.343Z,70.66
2023-04-11T04:04:21.567Z,71.42
2023-04-11T04:06:57.067Z,70.57
2023-04-11T04:09:31.656Z,70.15
2023-04-11T04:11:58.900Z,70.06
2023-04-11T04:14:36.569Z,69.63
2023-04-11T04:17:03.670Z,69.83
2023-04-11T04:19:30.754Z,70.28
2023-04-11T04:21:58.227Z,69.83
2023-04-11T04:24:39.404Z,69.51
2023-04-11T04:27:19.077Z,70.06
2023-04-11T04:29:49.690Z,69.67
2023-04-11T04:32:30.808Z,69.17
2023-04-11T04:35:02.782Z,68.72
2023-04-11T04:37:39.444Z,68.64
2023-04-11T04:40:14.133Z,68.39
2023-04-11T04:42:58.782Z,68.90
2023-04-11T04:45:37.404Z,70.16
2023-04-11T04:48:05.374Z,69.31
2023-04-11T04:50:32.602Z,69.81
2023-04-11T04:52:59.715Z,69.08
2023-04-11T04:55:28.956Z,70.13
2023-04-11T04:57:56.284Z,70.47
2023-04-11T05:00:23.511Z,70.53
2023-04-11T05:02:55.572Z,71.24
2023-04-11T05:05:25.890Z,70.65
2023-04-11T05:07:53.722Z,70.06
2023-04-11T05:10:21.101Z,71.04
2023-04-11T05:12:48.892Z,71.67
2023-04-11T05:15:16.186Z,72.14
2023-04-11T05:17:43.339Z,71.91
2023-04-11T05:20:11.963Z,69.35
2023-04-11T05:22:39.413Z,68.41
2023-04-11T05:25:08.989Z,67.74
2023-04-11T05:27:38.120Z,68.63
2023-04-11T05:30:06.377Z,68.83
2023-04-11T05:32:37.496Z,68.70
2023-04-11T05:35:05.966Z,68.53
2023-04-11T05:37:46.246Z,67.76
2023-04-11T05:40:13.380Z,68.72
2023-04-11T05:42:40.488Z,68.38
2023-04-11T05:45:07.886Z,69.57
2023-04-11T05:47:34.993Z,69.59
2023-04-11T05:50:02.177Z,69.46
2023-04-11T05:52:29.256Z,69.38
2023-04-11T05:54:56.321Z,69.12
2023-04-11T05:57:23.626Z,67.87
2023-04-11T05:59:52.938Z,67.39
2023-04-11T06:02:20.189Z,65.58
2023-04-11T06:04:47.395Z,64.79
2023-04-11T06:07:14.580Z,65.05
2023-04-11T06:09:42.583Z,63.83
2023-04-11T06:12:09.812Z,63.30
2023-04-11T06:14:39.527Z,63.44
2023-04-11T06:17:07.446Z,62.80
2023-04-11T06:19:34.509Z,61.67
2023-04-11T06:22:01.921Z,59.77
2023-04-11T06:24:39.753Z,59.14
2023-04-11T06:27:10.081Z,58.29
2023-04-11T06:29:37.662Z,58.47
2023-04-11T06:32:04.948Z,58.09
2023-04-11T06:34:32.241Z,57.78
2023-04-11T06:36:59.415Z,59.77
2023-04-11T06:39:26.558Z,56.85
2023-04-11T06:41:53.640Z,57.57
2023-04-11T06:44:25.855Z,55.81
2023-04-11T06:46:53.188Z,52.34
2023-04-11T06:49:20.746Z,52.55
2023-04-11T06:51:50.098Z,52.09
2023-04-11T06:54:18.157Z,51.03
2023-04-11T06:56:45.756Z,48.00
2023-04-11T06:59:13.309Z,47.03
2023-04-11T07:01:40.399Z,46.76
2023-04-11T07:04:08.103Z,46.45
2023-04-11T07:06:36.405Z,43.89
2023-04-11T07:09:04.044Z,43.72
2023-04-11T07:11:31.286Z,41.46
2023-04-11T07:14:01.837Z,40.91
2023-04-11T07:16:29.005Z,42.98
2023-04-11T07:18:56.281Z,41.66
2023-04-11T07:21:23.453Z,42.26
2023-04-11T07:23:50.505Z,40.89
2023-04-11T07:26:17.886Z,40.01
2023-04-11T07:28:45.227Z,40.68
2023-04-11T07:31:12.708Z,41.00
2023-04-11T07:33:43.021Z,38.78
2023-04-11T07:36:11.003Z,39.08
2023-04-11T07:38:38.408Z,40.48
2023-04-11T07:41:05.655Z,38.17
2023-04-11T07:43:33.324Z,38.34
2023-04-11T07:46:00.752Z,36.28
2023-04-11T07:48:28.393Z,34.30
2023-04-11T07:50:55.537Z,35.18
2023-04-11T07:53:22.635Z,34.59
2023-04-11T07:55:49.825Z,32.51
2023-04-11T07:58:16.933Z,31.68
2023-04-11T08:00:44.021Z,32.02
2023-04-11T08:03:11.755Z,32.04
2023-04-11T08:05:39.169Z,32.72
2023-04-11T08:08:06.639Z,32.37
2023-04-11T08:10:33.929Z,32.65
2023-04-11T08:13:01.141Z,33.46
2023-04-11T08:15:28.206Z,32.47
2023-04-11T08:17:56.240Z,33.16
2023-04-11T08:20:24.071Z,31.72
2023-04-11T08:22:51.195Z,29.66
2023-04-11T08:25:22.703Z,28.94
2023-04-11T08:27:50.877Z,29.03
2023-04-11T08:30:18.064Z,29.59
2023-04-11T08:32:45.247Z,28.94
2023-04-11T08:35:12.426Z,27.84
2023-04-11T08:37:39.570Z,28.90
2023-04-11T08:40:07.040Z,28.09
2023-04-11T08:42:34.402Z,29.71
2023-04-11T08:45:03.126Z,30.34
2023-04-11T08:47:30.960Z,29.32
2023-04-11T08:49:58.063Z,29.41
2023-04-11T08:52:25.401Z,29.47
2023-04-11T08:54:56.249Z,28.54
2023-04-11T08:57:26.158Z,30.11
2023-04-11T08:59:57.367Z,30.19
2023-04-11T09:02:24.570Z,29.85
2023-04-11T09:04:52.064Z,29.45
2023-04-11T09:07:19.392Z,30.13
2023-04-11T09:09:46.550Z,30.53
2023-04-11T09:12:13.777Z,29.78
2023-04-11T09:14:41.596Z,29.78
2023-04-11T09:17:13.537Z,29.78
2023-04-11T09:19:45.126Z,30.29
2023-04-11T09:22:15.658Z,30.56
2023-04-11T09:24:43.018Z,30.62
2023-04-11T09:27:15.642Z,31.99
2023-04-11T09:29:45.254Z,30.02
2023-04-11T09:32:27.460Z,30.34
2023-04-11T09:35:18.717Z,31.08
2023-04-11T09:37:50.312Z,32.50
2023-04-11T09:40:18.390Z,32.03
2023-04-11T09:42:46.116Z,30.38
2023-04-11T09:45:17.549Z,30.07
2023-04-11T09:47:45.722Z,28.98
2023-04-11T09:50:12.917Z,30.10
2023-04-11T09:52:41.798Z,32.38
2023-04-11T09:55:11.695Z,30.90
2023-04-11T09:57:40.681Z,31.37
2023-04-11T10:00:17.171Z,31.04
2023-04-11T10:02:45.174Z,30.90
2023-04-11T10:05:13.396Z,30.89
2023-04-11T10:07:55.711Z,30.22
2023-04-11T10:10:24.029Z,29.75
2023-04-11T10:12:51.523Z,29.33
2023-04-11T10:15:19.253Z,28.51
2023-04-11T10:18:05.401Z,29.12
2023-04-11T10:20:39.217Z,28.82
2023-04-11T10:23:07.568Z,31.07
2023-04-11T10:25:48.400Z,30.12
2023-04-11T10:28:29.533Z,28.78
2023-04-11T10:31:00.514Z,29.13
2023-04-11T10:33:28.158Z,30.41
2023-04-11T10:35:59.301Z,29.44
2023-04-11T10:38:43.231Z,29.23
2023-04-11T10:41:17.887Z,30.77
2023-04-11T10:43:46.021Z,28.93
2023-04-11T10:46:19.614Z,30.62
2023-04-11T10:49:03.204Z,31.32
2023-04-11T10:51:31.509Z,30.57
2023-04-11T10:54:02.783Z,31.28
2023-04-11T10:56:50.580Z,30.75
2023-04-11T10:59:34.310Z,31.18
2023-04-11T11:02:02.172Z,32.00
2023-04-11T11:04:32.560Z,32.12
2023-04-11T11:07:01.540Z,31.75
2023-04-11T11:09:28.946Z,32.10
2023-04-11T11:12:09.229Z,32.96
2023-04-11T11:14:36.608Z,33.65
2023-04-11T11:17:04.129Z,33.24
2023-04-11T11:19:31.495Z,33.06
2023-04-11T11:22:03.867Z,33.34
2023-04-11T11:24:31.207Z,33.53
2023-04-11T11:26:58.950Z,33.31
2023-04-11T11:29:30.050Z,33.63
2023-04-11T11:31:57.622Z,34.42
2023-04-11T11:34:31.519Z,34.34
2023-04-11T11:36:59.601Z,34.75
2023-04-11T11:39:27.521Z,33.04
2023-04-11T11:41:54.794Z,34.13
2023-04-11T11:44:23.123Z,34.63
2023-04-11T11:47:06.480Z,34.12
2023-04-11T11:49:48.874Z,35.15
2023-04-11T11:52:34.814Z,35.30
2023-04-11T11:55:03.695Z,35.57
2023-04-11T11:57:31.182Z,35.74
2023-04-11T12:00:00.633Z,34.56
2023-04-11T12:02:28.289Z,35.60
2023-04-11T12:05:00.036Z,35.91
2023-04-11T12:07:30.319Z,36.03
2023-04-11T12:10:02.626Z,35.94
2023-04-11T12:12:36.825Z,36.61
2023-04-11T12:15:13.798Z,36.77
2023-04-11T12:17:41.362Z,36.47
2023-04-11T12:20:09.003Z,36.20
2023-04-11T12:22:36.464Z,35.89
2023-04-11T12:25:04.529Z,35.91
2023-04-11T12:27:33.178Z,35.85
2023-04-11T12:30:00.699Z,35.62
2023-04-11T12:32:28.419Z,35.18
2023-04-11T12:34:55.580Z,35.97
2023-04-11T12:37:22.909Z,35.45
2023-04-11T12:39:50.049Z,35.25
2023-04-11T12:42:21.025Z,35.89
2023-04-11T12:44:51.114Z,35.07
2023-04-11T12:47:18.360Z,35.73
2023-04-11T12:49:45.684Z,35.14
2023-04-11T12:52:12.754Z,35.50
2023-04-11T12:54:39.794Z,35.49
2023-04-11T12:57:07.693Z,35.52
2023-04-11T12:59:34.835Z,35.99
2023-04-11T13:02:02.086Z,36.59
2023-04-11T13:04:29.535Z,36.88
2023-04-11T13:07:00.994Z,37.01
2023-04-11T13:09:34.268Z,37.45
2023-04-11T13:12:04.143Z,37.89
2023-04-11T13:14:31.314Z,38.60
2023-04-11T13:16:58.406Z,38.13
2023-04-11T13:19:25.701Z,38.96
2023-04-11T13:21:52.803Z,39.45
2023-04-11T13:24:19.857Z,39.44
2023-04-11T13:26:46.982Z,38.65
2023-04-11T13:29:14.088Z,39.58
2023-04-11T13:31:41.477Z,40.71
2023-04-11T13:34:08.748Z,41.11
2023-04-11T13:36:36.013Z,41.76
2023-04-11T13:39:03.553Z,41.81
2023-04-11T13:41:32.411Z,41.25
2023-04-11T13:43:59.645Z,41.51
2023-04-11T13:46:27.271Z,41.84
2023-04-11T13:48:54.559Z,42.01
2023-04-11T13:51:21.825Z,41.91
2023-04-11T13:53:48.961Z,41.90
2023-04-11T13:56:16.064Z,42.01
2023-04-11T13:58:43.133Z,41.69
2023-04-11T14:01:10.524Z,42.27
2023-04-11T14:03:37.913Z,43.01
2023-04-11T14:06:05.410Z,43.59
2023-04-11T14:08:32.649Z,42.99
2023-04-11T14:10:59.721Z,42.15
2023-04-11T14:13:27.258Z,41.89
2023-04-11T14:16:05.328Z,42.58
2023-04-11T14:18:35.787Z,43.04
2023-04-11T14:21:03.811Z,43.69
2023-04-11T14:23:31.033Z,43.17
2023-04-11T14:25:58.081Z,43.86
2023-04-11T14:28:26.820Z,44.12
2023-04-11T14:30:55.593Z,45.38
2023-04-11T14:33:23.228Z,45.68
2023-04-11T14:35:51.060Z,46.45
2023-04-11T14:38:18.178Z,45.42
2023-04-11T14:40:45.521Z,45.68
2023-04-11T14:43:12.658Z,45.83
2023-04-11T14:45:39.692Z,45.83
2023-04-11T14:48:06.805Z,45.33
2023-04-11T14:50:34.050Z,45.98
2023-04-11T14:53:01.230Z,45.56
2023-04-11T14:55:28.354Z,45.26
2023-04-11T14:57:55.883Z,43.98
2023-04-11T15:00:24.608Z,44.16
2023-04-11T15:02:53.168Z,43.91
2023-04-11T15:05:20.699Z,43.93
2023-04-11T15:07:48.861Z,44.50
2023-04-11T15:10:17.076Z,45.09
2023-04-11T15:12:44.360Z,44.12
2023-04-11T15:15:11.922Z,44.05
2023-04-11T15:17:40.907Z,44.16
2023-04-11T15:20:09.536Z,44.07
2023-04-11T15:22:41.429Z,45.12
2023-04-11T15:25:10.940Z,45.77
2023-04-11T15:27:38.470Z,46.56
2023-04-11T15:30:07.329Z,46.71
2023-04-11T15:32:34.896Z,46.69
2023-04-11T15:35:02.196Z,46.37
2023-04-11T15:37:29.301Z,46.56
2023-04-11T15:39:57.796Z,46.81
2023-04-11T15:42:25.014Z,47.14
2023-04-11T15:44:52.224Z,47.16
2023-04-11T15:47:19.475Z,47.19
2023-04-11T15:49:46.680Z,47.06
2023-04-11T15:52:13.849Z,46.93
2023-04-11T15:54:40.963Z,46.97
2023-04-11T15:57:08.026Z,46.95
2023-04-11T15:59:37.957Z,46.89
2023-04-11T16:02:05.452Z,46.96
2023-04-11T16:04:38.557Z,47.29
2023-04-11T16:07:06.652Z,47.43
2023-04-11T16:09:34.699Z,47.48
2023-04-11T16:12:02.196Z,47.92
2023-04-11T16:14:29.422Z,48.04
2023-04-11T16:16:57.369Z,48.68
2023-04-11T16:19:24.900Z,48.12
2023-04-11T16:21:52.040Z,47.74
2023-04-11T16:24:19.200Z,47.67
2023-04-11T16:26:46.328Z,48.49
2023-04-11T16:29:13.375Z,48.48
2023-04-11T16:31:40.555Z,48.38
2023-04-11T16:34:07.588Z,47.69
2023-04-11T16:36:35.454Z,47.30
2023-04-11T16:39:04.279Z,48.41
2023-04-11T16:41:36.189Z,48.81
2023-04-11T16:44:05.694Z,49.03
2023-04-11T16:46:32.777Z,49.30
2023-04-11T16:48:59.855Z,49.65
2023-04-11T16:51:27.310Z,49.46
2023-04-11T16:53:54.574Z,49.81
2023-04-11T16:56:21.787Z,50.52
2023-04-11T16:58:48.869Z,50.72
2023-04-11T17:01:16.145Z,50.54
2023-04-11T17:03:43.830Z,51.02
2023-04-11T17:06:14.850Z,51.80
2023-04-11T17:08:42.476Z,51.34
2023-04-11T17:11:10.698Z,51.60
2023-04-11T17:13:38.281Z,51.54
2023-04-11T17:16:06.135Z,51.71
2023-04-11T17:18:33.384Z,51.45
2023-04-11T17:21:00.801Z,52.26
2023-04-11T17:23:41.363Z,51.99
2023-04-11T17:26:09.589Z,51.24
2023-04-11T17:28:36.781Z,51.70
2023-04-11T17:31:22.347Z,51.76
2023-04-11T17:33:49.655Z,52.44
2023-04-11T17:36:16.901Z,52.17
2023-04-11T17:38:44.652Z,52.67
2023-04-11T17:41:15.097Z,53.11
2023-04-11T17:43:43.625Z,53.89
2023-04-11T17:46:10.800Z,54.75
2023-04-11T17:48:37.937Z,54.09
2023-04-11T17:51:08.322Z,55.31
2023-04-11T17:53:35.678Z,54.96
2023-04-11T17:56:04.477Z,55.34
2023-04-11T17:58:32.021Z,55.75
2023-04-11T18:00:59.583Z,56.57
2023-04-11T18:03:26.853Z,56.73
2023-04-11T18:05:54.748Z,57.28
2023-04-11T18:08:28.778Z,57.47
2023-04-11T18:11:00.502Z,58.13
2023-04-11T18:13:28.058Z,58.56
2023-04-11T18:15:55.185Z,60.45
2023-04-11T18:18:22.417Z,61.92
2023-04-11T18:20:49.506Z,61.00
2023-04-11T18:23:16.777Z,61.32
2023-04-11T18:25:43.816Z,61.49
2023-04-11T18:28:10.902Z,61.82
2023-04-11T18:30:38.006Z,62.50
2023-04-11T18:33:05.204Z,62.64
2023-04-11T18:35:32.512Z,62.38
2023-04-11T18:38:00.270Z,63.13
2023-04-11T18:40:28.064Z,63.64
2023-04-11T18:42:56.422Z,66.09
2023-04-11T18:45:24.025Z,66.51
2023-04-11T18:47:51.460Z,65.65
2023-04-11T18:50:18.921Z,66.05
2023-04-11T18:52:48.555Z,65.74
2023-04-11T18:55:17.700Z,66.50
2023-04-11T18:57:48.919Z,67.20
2023-04-11T19:00:19.038Z,65.05
2023-04-11T19:02:47.682Z,64.40
2023-04-11T19:05:15.931Z,64.15
2023-04-11T19:07:43.787Z,63.49
2023-04-11T19:10:11.831Z,62.31
2023-04-11T19:12:39.950Z,61.87
2023-04-11T19:15:09.376Z,61.96
2023-04-11T19:17:38.507Z,63.31
2023-04-11T19:20:16.552Z,63.22
2023-04-11T19:22:44.239Z,64.70
2023-04-11T19:25:13.009Z,63.64
2023-04-11T19:27:42.174Z,63.13
2023-04-11T19:30:10.802Z,62.54
2023-04-11T19:32:43.780Z,62.33
2023-04-11T19:35:12.589Z,64.55
2023-04-11T19:37:41.330Z,66.07
2023-04-11T19:40:16.628Z,66.47
2023-04-11T19:42:47.513Z,66.39
2023-04-11T19:45:19.225Z,64.78
2023-04-11T19:47:47.136Z,64.20
2023-04-11T19:50:14.617Z,63.11
2023-04-11T19:52:43.928Z,62.42
2023-04-11T19:55:11.780Z,64.43
2023-04-11T19:57:39.083Z,64.60
2023-04-11T20:00:13.993Z,65.65
2023-04-11T20:02:46.389Z,64.61
2023-04-11T20:05:14.948Z,63.41
2023-04-11T20:07:44.907Z,61.28
2023-04-11T20:10:14.516Z,61.43
2023-04-11T20:12:43.236Z,60.99
2023-04-11T20:15:10.700Z,60.27
2023-04-11T20:17:37.966Z,59.50
2023-04-11T20:20:13.051Z,58.56
2023-04-11T20:22:40.812Z,57.37
2023-04-11T20:25:08.297Z,57.53
2023-04-11T20:27:35.503Z,58.40
2023-04-11T20:30:06.875Z,57.61
2023-04-11T20:32:34.222Z,56.86
2023-04-11T20:35:03.248Z,55.13
2023-04-11T20:37:31.615Z,54.36
2023-04-11T20:39:58.842Z,53.35
2023-04-11T20:42:28.249Z,53.43
2023-04-11T20:45:07.603Z,53.23
2023-04-11T20:47:37.223Z,53.08
2023-04-11T20:50:05.434Z,52.82
2023-04-11T20:52:32.897Z,52.50
2023-04-11T20:55:00.310Z,53.05
2023-04-11T20:57:29.946Z,53.02
2023-04-11T20:59:57.582Z,53.53
2023-04-11T21:02:26.106Z,53.77
2023-04-11T21:04:53.843Z,53.80
2023-04-11T21:07:21.472Z,54.37
2023-04-11T21:09:49.029Z,54.20
2023-04-11T21:12:16.274Z,54.21
2023-04-11T21:14:43.344Z,54.33
2023-04-11T21:17:10.689Z,54.00
2023-04-11T21:19:38.162Z,54.41
2023-04-11T21:22:05.602Z,54.33
2023-04-11T21:24:33.383Z,54.43
2023-04-11T21:27:01.301Z,54.24
2023-04-11T21:29:28.799Z,54.92
2023-04-11T21:31:55.861Z,54.80
2023-04-11T21:34:22.991Z,54.51
2023-04-11T21:36:50.280Z,55.70
2023-04-11T21:39:17.310Z,55.23
2023-04-11T21:41:44.421Z,55.40
2023-04-11T21:44:11.522Z,54.70
2023-04-11T21:46:38.616Z,55.12
2023-04-11T21:49:05.875Z,55.27
2023-04-11T21:51:32.906Z,55.23
2023-04-11T21:53:59.962Z,56.00
2023-04-11T21:56:27.044Z,55.66
2023-04-11T21:58:54.168Z,55.73
2023-04-11T22:01:21.191Z,56.17
2023-04-11T22:03:50.355Z,56.42
2023-04-11T22:06:18.024Z,56.17
2023-04-11T22:08:50.178Z,55.91
2023-04-11T22:11:17.772Z,55.63
2023-04-11T22:13:46.490Z,55.97
2023-04-11T22:16:14.185Z,55.99
2023-04-11T22:18:47.436Z,56.29
2023-04-11T22:21:19.415Z,56.05
2023-04-11T22:23:54.158Z,56.62
2023-04-11T22:26:34.252Z,56.69
2023-04-11T22:29:05.269Z,56.76
2023-04-11T22:31:38.694Z,56.56
2023-04-11T22:34:08.344Z,56.45
2023-04-11T22:36:35.973Z,55.93
2023-04-11T22:39:04.684Z,55.86
2023-04-11T22:41:33.164Z,55.29
2023-04-11T22:44:03.277Z,55.24
2023-04-11T22:46:31.247Z,55.10
2023-04-11T22:48:58.376Z,55.25
2023-04-11T22:51:29.921Z,54.71
2023-04-11T22:53:57.381Z,54.77
2023-04-11T22:56:24.577Z,54.90
2023-04-11T22:58:52.259Z,54.82
2023-04-11T23:01:19.769Z,54.94
2023-04-11T23:03:47.585Z,54.36
2023-04-11T23:06:14.675Z,54.16
2023-04-11T23:08:42.315Z,53.53
2023-04-11T23:11:09.433Z,53.60
2023-04-11T23:13:37.578Z,53.39
2023-04-11T23:16:04.870Z,53.00
2023-04-11T23:18:31.917Z,53.28
2023-04-11T23:20:59.758Z,52.93
2023-04-11T23:23:27.864Z,52.66
2023-04-11T23:25:54.935Z,52.60
2023-04-11T23:28:24.090Z,52.81
2023-04-11T23:30:51.313Z,52.51
2023-04-11T23:33:18.441Z,52.77
2023-04-11T23:35:45.676Z,52.92
2023-04-11T23:38:13.300Z,52.52
2023-04-11T23:40:40.350Z,52.42
2023-04-11T23:43:08.025Z,52.43
2023-04-11T23:45:35.574Z,52.42
2023-04-11T23:48:02.668Z,52.73
2023-04-11T23:50:29.746Z,52.89
2023-04-11T23:52:57.074Z,52.56
2023-04-11T23:55:24.280Z,52.65
2023-04-11T23:57:51.361Z,52.82
